Covington, Washington
Current Conditions -  °F | °C
As of 8:53 AM on Friday 28 Nov 2014 (Local Time) from KSEA Reporting Station
Moderate Rain Moderate Rain  
Wind Chill: 53°   Ceiling: 1600
Heat Index: 53°   Visibility: 6mi
Dew Point: 50°   Wind: 14mph
Humidity: 89%   Direction: 210°SSW
Pressure: 29.51"   Gusts: 20mph
Location:  47.3596°N, 122.107°W
Report Text: KSEA 281653Z 21012G17KT 6SM RA BR BKN016 OVC026 12/10 A2951 RMK AO2 RAB05 SLP998 P0010 T01170100
Loading
Personal Weather Stations






























Interactive Weather Map New forecast layout! Learn more

10-Day Weather Forecast

Advertisements
Track Severe Weather on mobile